createdAt,value
2023-01-21T00:00:08.661Z,20.72
2023-01-21T00:02:36.353Z,20.71
2023-01-21T00:05:04.105Z,20.69
2023-01-21T00:07:31.835Z,20.66
2023-01-21T00:09:59.562Z,20.65
2023-01-21T00:12:27.284Z,20.64
2023-01-21T00:14:55.649Z,20.66
2023-01-21T00:17:23.415Z,20.64
2023-01-21T00:19:51.336Z,20.62
2023-01-21T00:22:19.094Z,20.58
2023-01-21T00:24:46.793Z,20.58
2023-01-21T00:27:14.518Z,20.61
2023-01-21T00:29:42.264Z,20.59
2023-01-21T00:32:10.008Z,20.56
2023-01-21T00:34:37.707Z,20.56
2023-01-21T00:37:05.373Z,20.56
2023-01-21T00:39:33.048Z,20.57
2023-01-21T00:42:00.790Z,20.55
2023-01-21T00:44:28.587Z,20.52
2023-01-21T00:46:56.314Z,20.51
2023-01-21T00:49:24.041Z,20.52
2023-01-21T00:51:51.748Z,20.51
2023-01-21T00:54:19.496Z,20.49
2023-01-21T00:56:47.227Z,20.50
2023-01-21T00:59:15.084Z,20.48
2023-01-21T01:01:42.893Z,20.48
2023-01-21T01:04:12.190Z,20.46
2023-01-21T01:06:39.885Z,20.46
2023-01-21T01:09:07.940Z,20.45
2023-01-21T01:11:35.690Z,20.44
2023-01-21T01:14:03.462Z,20.42
2023-01-21T01:16:31.157Z,20.42
2023-01-21T01:18:58.875Z,20.40
2023-01-21T01:21:26.574Z,20.40
2023-01-21T01:23:54.810Z,20.39
2023-01-21T01:26:22.548Z,20.36
2023-01-21T01:28:50.330Z,20.36
2023-01-21T01:31:18.247Z,20.34
2023-01-21T01:33:46.180Z,20.34
2023-01-21T01:36:13.973Z,20.30
2023-01-21T01:38:41.697Z,20.30
2023-01-21T01:41:09.617Z,20.30
2023-01-21T01:43:37.310Z,20.29
2023-01-21T01:46:05.168Z,20.27
2023-01-21T01:48:32.923Z,20.26
2023-01-21T01:51:00.680Z,20.26
2023-01-21T01:53:28.436Z,20.25
2023-01-21T01:55:56.164Z,20.25
2023-01-21T01:58:23.876Z,20.26
2023-01-21T02:00:51.563Z,20.24
2023-01-21T02:03:37.105Z,20.23
2023-01-21T02:06:04.889Z,20.21
2023-01-21T02:08:33.314Z,20.20
2023-01-21T02:11:03.809Z,20.21
2023-01-21T02:13:31.652Z,20.18
2023-01-21T02:15:59.480Z,20.20
2023-01-21T02:18:27.257Z,20.20
2023-01-21T02:20:54.960Z,20.18
2023-01-21T02:23:25.878Z,20.18
2023-01-21T02:25:53.860Z,20.16
2023-01-21T02:28:21.605Z,20.18
2023-01-21T02:30:49.365Z,20.15
2023-01-21T02:33:17.117Z,20.15
2023-01-21T02:35:44.905Z,20.15
2023-01-21T02:38:12.612Z,20.13
2023-01-21T02:40:40.355Z,20.12
2023-01-21T02:43:08.207Z,20.11
2023-01-21T02:45:36.282Z,20.10
2023-01-21T02:48:06.108Z,20.10
2023-01-21T02:50:34.342Z,20.08
2023-01-21T02:53:02.051Z,20.09
2023-01-21T02:55:29.779Z,20.08
2023-01-21T02:57:57.575Z,20.08
2023-01-21T03:00:25.390Z,20.06
2023-01-21T03:02:53.165Z,20.04
2023-01-21T03:05:20.904Z,20.04
2023-01-21T03:07:48.642Z,20.05
2023-01-21T03:10:16.560Z,20.06
2023-01-21T03:12:44.450Z,20.07
2023-01-21T03:15:29.971Z,20.05
2023-01-21T03:17:57.681Z,20.01
2023-01-21T03:20:25.396Z,20.02
2023-01-21T03:22:53.255Z,20.04
2023-01-21T03:25:21.029Z,20.02
2023-01-21T03:27:48.720Z,20.02
2023-01-21T03:30:16.807Z,20.02
2023-01-21T03:32:44.919Z,20.00
2023-01-21T03:35:12.709Z,19.97
2023-01-21T03:37:40.466Z,19.98
2023-01-21T03:40:08.188Z,19.97
2023-01-21T03:42:35.931Z,19.96
2023-01-21T03:45:03.781Z,19.96
2023-01-21T03:47:31.863Z,19.97
2023-01-21T03:49:59.576Z,19.96
2023-01-21T03:52:27.304Z,19.96
2023-01-21T03:54:55.064Z,19.96
2023-01-21T03:57:22.727Z,19.96
2023-01-21T03:59:50.502Z,19.95
2023-01-21T04:02:20.315Z,19.95
2023-01-21T04:04:48.287Z,19.97
2023-01-21T04:07:16.058Z,19.95
2023-01-21T04:09:43.769Z,19.96
2023-01-21T04:12:11.900Z,19.98
2023-01-21T04:14:39.662Z,19.96
2023-01-21T04:17:07.474Z,19.94
2023-01-21T04:19:35.215Z,19.94
2023-01-21T04:22:02.967Z,19.96
2023-01-21T04:24:31.400Z,19.95
2023-01-21T04:27:00.352Z,19.91
2023-01-21T04:29:28.147Z,19.91
2023-01-21T04:31:55.997Z,19.89
2023-01-21T04:34:23.806Z,19.92
2023-01-21T04:36:51.625Z,19.88
2023-01-21T04:39:19.446Z,19.87
2023-01-21T04:41:47.307Z,19.90
2023-01-21T04:44:15.049Z,19.90
2023-01-21T04:46:42.865Z,19.89
2023-01-21T04:49:10.713Z,19.88
2023-01-21T04:51:38.548Z,19.90
2023-01-21T04:54:06.453Z,19.89
2023-01-21T04:56:34.185Z,19.87
2023-01-21T04:59:01.933Z,19.87
2023-01-21T05:01:29.753Z,19.84
2023-01-21T05:03:57.482Z,19.81
2023-01-21T05:06:25.263Z,19.80
2023-01-21T05:08:52.997Z,19.79
2023-01-21T05:11:20.854Z,19.76
2023-01-21T05:13:48.608Z,19.79
2023-01-21T05:16:16.463Z,19.77
2023-01-21T05:18:46.733Z,19.78
2023-01-21T05:21:14.662Z,19.72
2023-01-21T05:23:42.406Z,19.66
2023-01-21T05:26:10.129Z,19.67
2023-01-21T05:28:37.926Z,19.67
2023-01-21T05:31:05.760Z,19.64
2023-01-21T05:33:34.011Z,19.66
2023-01-21T05:36:01.745Z,19.65
2023-01-21T05:38:29.503Z,19.62
2023-01-21T05:40:57.329Z,19.65
2023-01-21T05:43:25.038Z,19.66
2023-01-21T05:45:52.885Z,19.75
2023-01-21T05:48:20.636Z,20.59
2023-01-21T05:50:48.490Z,21.74
2023-01-21T05:53:16.223Z,22.62
2023-01-21T05:55:43.992Z,23.22
2023-01-21T05:58:11.722Z,23.63
2023-01-21T06:00:41.932Z,24.01
2023-01-21T06:03:09.726Z,24.37
2023-01-21T06:05:37.460Z,24.68
2023-01-21T06:08:05.467Z,24.95
2023-01-21T06:10:33.212Z,25.16
2023-01-21T06:13:00.976Z,26.00
2023-01-21T06:15:28.726Z,31.26
2023-01-21T06:17:56.481Z,36.44
2023-01-21T06:20:24.198Z,40.31
2023-01-21T06:22:51.948Z,42.90
2023-01-21T06:25:19.714Z,44.43
2023-01-21T06:27:47.495Z,45.45
2023-01-21T06:30:15.443Z,46.24
2023-01-21T06:32:43.371Z,46.82
2023-01-21T06:35:11.096Z,47.16
2023-01-21T06:37:38.865Z,47.41
2023-01-21T06:40:07.581Z,47.52
2023-01-21T06:42:35.370Z,47.56
2023-01-21T06:45:03.116Z,47.56
2023-01-21T06:47:30.852Z,47.34
2023-01-21T06:49:58.580Z,46.52
2023-01-21T06:52:26.297Z,45.41
2023-01-21T06:54:54.205Z,44.05
2023-01-21T06:57:22.030Z,42.68
2023-01-21T06:59:49.795Z,41.36
2023-01-21T07:02:17.587Z,39.90
2023-01-21T07:04:45.628Z,38.61
2023-01-21T07:07:13.403Z,37.42
2023-01-21T07:09:41.807Z,36.26
2023-01-21T07:12:09.559Z,35.19
2023-01-21T07:14:37.648Z,34.18
2023-01-21T07:17:05.399Z,33.25
2023-01-21T07:19:33.211Z,32.44
2023-01-21T07:22:00.978Z,31.64
2023-01-21T07:24:28.754Z,30.91
2023-01-21T07:26:57.201Z,30.31
2023-01-21T07:29:24.945Z,29.66
2023-01-21T07:31:53.021Z,29.08
2023-01-21T07:34:20.850Z,28.56
2023-01-21T07:36:48.613Z,28.14
2023-01-21T07:39:16.612Z,27.66
2023-01-21T07:41:44.378Z,27.24
2023-01-21T07:44:12.160Z,26.84
2023-01-21T07:46:39.975Z,26.94
2023-01-21T07:49:07.723Z,26.84
2023-01-21T07:51:35.484Z,26.59
2023-01-21T07:54:03.316Z,26.34
2023-01-21T07:56:31.144Z,26.15
2023-01-21T07:58:58.942Z,25.90
2023-01-21T08:01:31.142Z,25.68
2023-01-21T08:03:58.977Z,26.03
2023-01-21T08:06:26.744Z,27.43
2023-01-21T08:08:54.546Z,28.94
2023-01-21T08:11:22.379Z,30.68
2023-01-21T08:13:50.137Z,33.01
2023-01-21T08:16:18.009Z,35.12
2023-01-21T08:18:45.821Z,36.66
2023-01-21T08:21:13.561Z,38.31
2023-01-21T08:23:41.287Z,39.93
2023-01-21T08:26:09.066Z,40.70
2023-01-21T08:28:36.833Z,40.66
2023-01-21T08:31:04.635Z,40.06
2023-01-21T08:33:33.129Z,39.20
2023-01-21T08:36:00.909Z,38.13
2023-01-21T08:38:28.768Z,37.08
2023-01-21T08:40:56.496Z,35.99
2023-01-21T08:43:24.262Z,34.95
2023-01-21T08:45:52.044Z,33.99
2023-01-21T08:48:20.165Z,33.05
2023-01-21T08:50:47.936Z,32.19
2023-01-21T08:53:15.669Z,31.44
2023-01-21T08:55:43.392Z,30.77
2023-01-21T08:58:11.137Z,30.05
2023-01-21T09:00:38.971Z,29.39
2023-01-21T09:03:06.779Z,28.79
2023-01-21T09:05:34.564Z,28.28
2023-01-21T09:08:02.384Z,27.77
2023-01-21T09:10:47.735Z,27.32
2023-01-21T09:13:16.434Z,27.20
2023-01-21T09:15:44.391Z,27.14
2023-01-21T09:18:12.251Z,26.93
2023-01-21T09:20:40.043Z,26.70
2023-01-21T09:23:24.288Z,26.44
2023-01-21T09:25:52.334Z,26.12
2023-01-21T09:28:23.371Z,25.87
2023-01-21T09:30:51.211Z,25.62
2023-01-21T09:33:19.142Z,25.39
2023-01-21T09:35:46.996Z,25.13
2023-01-21T09:38:15.057Z,24.91
2023-01-21T09:40:44.041Z,24.63
2023-01-21T09:43:11.845Z,24.42
2023-01-21T09:45:39.677Z,24.27
2023-01-21T09:48:11.825Z,24.08
2023-01-21T09:50:39.810Z,23.92
2023-01-21T09:53:10.451Z,23.80
2023-01-21T09:55:38.328Z,23.66
2023-01-21T09:58:10.548Z,23.50
2023-01-21T10:00:39.582Z,23.40
2023-01-21T10:03:07.452Z,23.30
2023-01-21T10:05:35.306Z,23.10
2023-01-21T10:08:03.184Z,22.97
2023-01-21T10:10:31.170Z,22.83
2023-01-21T10:12:59.017Z,22.71
2023-01-21T10:15:26.961Z,22.60
2023-01-21T10:17:57.786Z,22.49
2023-01-21T10:20:25.721Z,22.40
2023-01-21T10:22:55.918Z,22.31
2023-01-21T10:25:25.837Z,22.23
2023-01-21T10:27:53.711Z,22.15
2023-01-21T10:30:21.512Z,22.11
2023-01-21T10:32:49.361Z,22.03
2023-01-21T10:35:17.336Z,21.99
2023-01-21T10:37:45.477Z,21.94
2023-01-21T10:40:14.104Z,21.90
2023-01-21T10:42:42.133Z,21.87
2023-01-21T10:45:10.054Z,21.83
2023-01-21T10:47:37.842Z,21.80
2023-01-21T10:50:05.711Z,21.76
2023-01-21T10:52:33.609Z,21.76
2023-01-21T10:55:02.385Z,21.70
2023-01-21T10:57:31.049Z,21.65
2023-01-21T10:59:58.913Z,21.65
2023-01-21T11:02:26.862Z,21.65
2023-01-21T11:04:54.805Z,21.60
2023-01-21T11:07:22.650Z,21.53
2023-01-21T11:09:50.828Z,21.52
2023-01-21T11:12:18.847Z,21.51
2023-01-21T11:14:49.283Z,21.49
2023-01-21T11:17:17.271Z,21.45
2023-01-21T11:19:45.333Z,21.43
2023-01-21T11:22:13.250Z,21.42
2023-01-21T11:24:41.176Z,21.41
2023-01-21T11:27:09.032Z,21.39
2023-01-21T11:29:37.034Z,21.39
2023-01-21T11:32:04.886Z,21.35
2023-01-21T11:34:32.780Z,21.32
2023-01-21T11:37:00.716Z,21.30
2023-01-21T11:39:28.610Z,21.26
2023-01-21T11:41:58.752Z,21.24
2023-01-21T11:44:27.725Z,21.22
2023-01-21T11:47:00.643Z,21.18
2023-01-21T11:49:28.448Z,21.14
2023-01-21T11:51:58.556Z,21.12
2023-01-21T11:54:26.327Z,21.08
2023-01-21T11:56:54.182Z,21.05
2023-01-21T11:59:21.969Z,21.03
2023-01-21T12:01:49.853Z,21.01
2023-01-21T12:04:17.792Z,20.95
2023-01-21T12:06:47.966Z,20.91
2023-01-21T12:09:15.727Z,20.88
2023-01-21T12:11:43.502Z,20.85
2023-01-21T12:14:11.432Z,20.80
2023-01-21T12:16:39.278Z,20.78
2023-01-21T12:19:07.682Z,20.79
2023-01-21T12:21:35.595Z,20.75
2023-01-21T12:24:03.339Z,20.73
2023-01-21T12:26:31.215Z,20.75
2023-01-21T12:28:58.912Z,20.74
2023-01-21T12:31:26.635Z,20.74
2023-01-21T12:33:54.462Z,20.74
2023-01-21T12:36:22.189Z,20.73
2023-01-21T12:38:49.964Z,20.70
2023-01-21T12:41:17.680Z,20.69
2023-01-21T12:43:46.670Z,20.71
2023-01-21T12:46:14.989Z,20.71
2023-01-21T12:48:42.803Z,21.18
2023-01-21T12:51:10.605Z,25.59
2023-01-21T12:53:38.433Z,32.46
2023-01-21T12:56:08.082Z,37.81
2023-01-21T12:58:37.134Z,41.50
2023-01-21T13:01:14.015Z,43.56
2023-01-21T13:03:41.835Z,44.88
2023-01-21T13:06:09.546Z,45.81
2023-01-21T13:08:37.281Z,46.50
2023-01-21T13:11:05.069Z,46.94
2023-01-21T13:13:32.800Z,47.18
2023-01-21T13:16:00.773Z,47.29
2023-01-21T13:18:28.492Z,46.90
2023-01-21T13:20:56.255Z,46.03
2023-01-21T13:23:23.975Z,44.76
2023-01-21T13:25:53.303Z,43.43
2023-01-21T13:28:21.025Z,42.13
2023-01-21T13:30:48.914Z,40.90
2023-01-21T13:33:16.820Z,39.52
2023-01-21T13:35:44.547Z,38.33
2023-01-21T13:38:12.377Z,37.15
2023-01-21T13:40:40.133Z,36.03
2023-01-21T13:43:08.007Z,34.98
2023-01-21T13:45:35.781Z,34.03
2023-01-21T13:48:03.543Z,33.21
2023-01-21T13:50:31.320Z,32.43
2023-01-21T13:52:59.053Z,31.73
2023-01-21T13:55:26.834Z,31.10
2023-01-21T13:57:54.650Z,30.51
2023-01-21T14:00:22.371Z,29.98
2023-01-21T14:02:50.256Z,29.28
2023-01-21T14:05:18.024Z,28.84
2023-01-21T14:07:45.736Z,28.50
2023-01-21T14:10:13.779Z,28.07
2023-01-21T14:12:41.481Z,27.67
2023-01-21T14:15:09.151Z,27.25
2023-01-21T14:17:37.024Z,26.92
2023-01-21T14:20:04.764Z,26.58
2023-01-21T14:22:32.663Z,26.63
2023-01-21T14:25:01.068Z,26.57
2023-01-21T14:27:28.807Z,26.39
2023-01-21T14:29:56.556Z,26.18
2023-01-21T14:32:24.324Z,25.96
2023-01-21T14:34:52.134Z,25.72
2023-01-21T14:37:19.978Z,25.50
2023-01-21T14:39:47.668Z,25.31
2023-01-21T14:42:17.425Z,25.16
2023-01-21T14:44:45.263Z,24.91
2023-01-21T14:47:13.031Z,24.71
2023-01-21T14:49:40.781Z,24.54
2023-01-21T14:52:08.537Z,24.47
2023-01-21T14:54:36.228Z,25.81
2023-01-21T14:57:18.119Z,27.85
2023-01-21T14:59:46.717Z,32.47
2023-01-21T15:02:14.551Z,36.87
2023-01-21T15:04:42.409Z,39.75
2023-01-21T15:07:10.169Z,40.88
2023-01-21T15:09:37.914Z,41.22
2023-01-21T15:12:05.666Z,41.39
2023-01-21T15:14:33.387Z,41.25
2023-01-21T15:17:01.632Z,40.61
2023-01-21T15:19:29.538Z,39.71
2023-01-21T15:21:57.837Z,38.69
2023-01-21T15:24:26.094Z,37.78
2023-01-21T15:26:54.110Z,36.72
2023-01-21T15:29:21.905Z,35.79
2023-01-21T15:31:49.796Z,34.80
2023-01-21T15:34:17.743Z,33.98
2023-01-21T15:36:47.137Z,33.02
2023-01-21T15:39:15.280Z,32.35
2023-01-21T15:41:45.088Z,31.54
2023-01-21T15:44:14.474Z,30.88
2023-01-21T15:46:45.419Z,30.21
2023-01-21T15:49:15.202Z,29.58
2023-01-21T15:51:44.354Z,29.05
2023-01-21T15:54:14.714Z,28.48
2023-01-21T15:56:45.638Z,27.99
2023-01-21T15:59:13.534Z,27.51
2023-01-21T16:01:44.145Z,27.09
2023-01-21T16:04:13.341Z,26.66
2023-01-21T16:06:41.363Z,26.30
2023-01-21T16:09:11.824Z,26.46
2023-01-21T16:11:42.837Z,26.52
2023-01-21T16:14:14.483Z,26.41
2023-01-21T16:16:43.095Z,26.24
2023-01-21T16:19:11.033Z,25.98
2023-01-21T16:21:40.301Z,25.72
2023-01-21T16:24:08.079Z,25.47
2023-01-21T16:26:40.100Z,25.20
2023-01-21T16:29:11.101Z,24.98
2023-01-21T16:31:44.386Z,24.81
2023-01-21T16:34:12.345Z,24.68
2023-01-21T16:36:40.402Z,24.54
2023-01-21T16:39:08.354Z,24.41
2023-01-21T16:41:36.428Z,24.30
2023-01-21T16:44:06.201Z,24.18
2023-01-21T16:46:34.734Z,24.09
2023-01-21T16:49:05.001Z,23.96
2023-01-21T16:51:33.443Z,23.85
2023-01-21T16:54:03.779Z,23.75
2023-01-21T16:56:31.911Z,24.05
2023-01-21T16:59:00.235Z,27.62
2023-01-21T17:01:30.685Z,33.69
2023-01-21T17:04:01.299Z,38.23
2023-01-21T17:06:29.066Z,40.21
2023-01-21T17:08:56.836Z,40.85
2023-01-21T17:11:26.637Z,41.84
2023-01-21T17:13:54.428Z,43.28
2023-01-21T17:16:24.416Z,44.46
2023-01-21T17:18:52.434Z,45.19
2023-01-21T17:21:20.205Z,45.31
2023-01-21T17:23:48.070Z,44.82
2023-01-21T17:26:15.936Z,43.84
2023-01-21T17:28:43.726Z,42.71
2023-01-21T17:31:11.639Z,41.53
2023-01-21T17:33:41.213Z,40.31
2023-01-21T17:36:08.975Z,39.02
2023-01-21T17:38:36.820Z,37.87
2023-01-21T17:41:06.304Z,36.83
2023-01-21T17:43:36.163Z,35.65
2023-01-21T17:46:04.037Z,34.67
2023-01-21T17:48:32.251Z,33.75
2023-01-21T17:51:00.151Z,32.86
2023-01-21T17:53:28.012Z,32.07
2023-01-21T17:55:55.837Z,31.37
2023-01-21T17:58:23.640Z,30.74
2023-01-21T18:00:51.594Z,30.07
2023-01-21T18:03:19.446Z,29.45
2023-01-21T18:05:47.230Z,28.91
2023-01-21T18:08:15.122Z,28.40
2023-01-21T18:10:42.895Z,28.13
2023-01-21T18:13:10.675Z,28.11
2023-01-21T18:15:38.482Z,27.96
2023-01-21T18:18:06.241Z,27.66
2023-01-21T18:20:34.076Z,27.40
2023-01-21T18:23:02.106Z,27.08
2023-01-21T18:25:29.925Z,26.79
2023-01-21T18:27:57.639Z,26.54
2023-01-21T18:30:25.971Z,26.28
2023-01-21T18:32:53.843Z,26.02
2023-01-21T18:35:21.642Z,25.85
2023-01-21T18:37:49.617Z,25.59
2023-01-21T18:40:18.333Z,25.43
2023-01-21T18:42:46.425Z,25.24
2023-01-21T18:45:14.271Z,25.07
2023-01-21T18:47:42.202Z,24.97
2023-01-21T18:50:09.983Z,24.77
2023-01-21T18:52:37.896Z,24.59
2023-01-21T18:55:07.213Z,24.53
2023-01-21T18:57:36.013Z,24.40
2023-01-21T19:00:04.437Z,24.30
2023-01-21T19:02:32.202Z,24.24
2023-01-21T19:04:59.953Z,24.57
2023-01-21T19:07:27.860Z,28.77
2023-01-21T19:09:55.624Z,34.60
2023-01-21T19:12:24.381Z,38.79
2023-01-21T19:14:52.199Z,40.74
2023-01-21T19:17:20.121Z,41.49
2023-01-21T19:19:47.863Z,42.47
2023-01-21T19:22:15.649Z,43.70
2023-01-21T19:24:43.424Z,44.88
2023-01-21T19:27:11.246Z,45.66
2023-01-21T19:29:40.944Z,45.67
2023-01-21T19:32:08.758Z,45.20
2023-01-21T19:34:36.554Z,44.27
2023-01-21T19:37:04.368Z,43.14
2023-01-21T19:39:35.208Z,41.91
2023-01-21T19:42:08.271Z,40.55
2023-01-21T19:44:36.654Z,39.27
2023-01-21T19:47:04.898Z,38.04
2023-01-21T19:49:32.666Z,36.92
2023-01-21T19:52:00.511Z,35.93
2023-01-21T19:54:28.276Z,34.89
2023-01-21T19:56:56.047Z,33.99
2023-01-21T19:59:23.830Z,33.10
2023-01-21T20:01:52.009Z,32.28
2023-01-21T20:04:19.812Z,31.51
2023-01-21T20:06:47.594Z,30.85
2023-01-21T20:09:17.777Z,30.20
2023-01-21T20:11:45.522Z,29.59
2023-01-21T20:14:13.246Z,29.03
2023-01-21T20:16:41.008Z,28.49
2023-01-21T20:19:08.769Z,28.02
2023-01-21T20:21:49.923Z,27.98
2023-01-21T20:24:22.682Z,28.01
2023-01-21T20:26:50.440Z,27.74
2023-01-21T20:29:20.094Z,27.45
2023-01-21T20:31:47.981Z,27.15
2023-01-21T20:34:15.774Z,26.88
2023-01-21T20:36:45.457Z,26.54
2023-01-21T20:39:13.288Z,26.31
2023-01-21T20:41:41.123Z,26.05
2023-01-21T20:44:08.903Z,25.83
2023-01-21T20:46:36.633Z,25.60
2023-01-21T20:49:04.406Z,25.40
2023-01-21T20:51:32.161Z,25.20
2023-01-21T20:53:59.924Z,25.02
2023-01-21T20:56:27.628Z,24.85
2023-01-21T20:58:55.389Z,24.65
2023-01-21T21:01:23.146Z,24.51
2023-01-21T21:03:50.979Z,24.38
2023-01-21T21:06:18.744Z,24.22
2023-01-21T21:08:46.521Z,24.07
2023-01-21T21:11:14.809Z,23.90
2023-01-21T21:13:42.657Z,23.69
2023-01-21T21:16:10.436Z,23.57
2023-01-21T21:18:38.195Z,23.42
2023-01-21T21:21:05.986Z,23.32
2023-01-21T21:23:33.790Z,23.18
2023-01-21T21:26:01.562Z,23.03
2023-01-21T21:28:29.292Z,22.97
2023-01-21T21:30:57.058Z,22.90
2023-01-21T21:33:24.865Z,22.82
2023-01-21T21:35:52.686Z,22.72
2023-01-21T21:38:22.091Z,22.63
2023-01-21T21:40:52.898Z,22.60
2023-01-21T21:43:38.918Z,22.53
2023-01-21T21:46:24.325Z,22.42
2023-01-21T21:48:52.203Z,22.36
2023-01-21T21:51:20.073Z,22.30
2023-01-21T21:53:47.901Z,22.26
2023-01-21T21:56:26.520Z,22.23
2023-01-21T21:58:54.406Z,22.19
2023-01-21T22:01:22.302Z,22.12
2023-01-21T22:03:50.054Z,22.09
2023-01-21T22:06:17.760Z,22.04
2023-01-21T22:08:45.507Z,22.00
2023-01-21T22:11:13.200Z,21.98
2023-01-21T22:13:41.946Z,21.95
2023-01-21T22:16:09.703Z,21.91
2023-01-21T22:18:37.386Z,21.83
2023-01-21T22:21:05.113Z,21.81
2023-01-21T22:23:32.876Z,21.76
2023-01-21T22:26:00.631Z,21.72
2023-01-21T22:28:28.353Z,21.72
2023-01-21T22:30:56.169Z,21.65
2023-01-21T22:33:23.973Z,21.63
2023-01-21T22:35:51.747Z,21.60
2023-01-21T22:38:19.514Z,21.56
2023-01-21T22:40:47.231Z,21.53
2023-01-21T22:43:15.558Z,21.49
2023-01-21T22:45:43.284Z,21.44
2023-01-21T22:48:11.088Z,21.42
2023-01-21T22:50:38.876Z,21.40
2023-01-21T22:53:06.605Z,21.36
2023-01-21T22:55:36.386Z,21.35
2023-01-21T22:58:04.186Z,21.32
2023-01-21T23:00:37.968Z,21.30
2023-01-21T23:03:05.745Z,21.25
2023-01-21T23:05:33.559Z,21.26
2023-01-21T23:08:02.468Z,21.23
2023-01-21T23:10:30.302Z,21.20
2023-01-21T23:12:58.038Z,21.14
2023-01-21T23:15:25.737Z,21.09
2023-01-21T23:17:53.795Z,21.03
2023-01-21T23:20:23.260Z,20.95
2023-01-21T23:22:51.178Z,20.91
2023-01-21T23:25:18.866Z,20.91
2023-01-21T23:27:46.705Z,20.88
2023-01-21T23:30:14.402Z,20.84
2023-01-21T23:32:42.143Z,20.81
2023-01-21T23:35:12.697Z,20.79
2023-01-21T23:37:40.456Z,20.75
2023-01-21T23:40:08.158Z,20.74
2023-01-21T23:42:35.927Z,20.72
2023-01-21T23:45:03.664Z,20.72
2023-01-21T23:47:31.529Z,20.72
2023-01-21T23:49:59.415Z,20.71
2023-01-21T23:52:27.175Z,20.70
2023-01-21T23:54:55.059Z,20.68
2023-01-21T23:57:22.813Z,20.69
2023-01-21T23:59:51.135Z,20.69
